Time;durP1;ratioP1;P1;durP2;ratioP2;P2;SDS_P1;SDS_P2;PMS_P1;PMS_P2;Temp;Humidity;BMP_temperature;BMP_pressure;BME280_temperature;BME280_humidity;BME280_pressure;Samples;Min_cycle;Max_cycle;Signal;HPM_P1;HPM_P2
2022/06/29 00:02:09;;;;;;;4.57;2.80;;;;;;;16.26;65.45;99566.53;4950424;29;20051;-66
2022/06/29 00:04:37;;;;;;;4.78;2.45;;;;;;;16.29;65.76;99576.09;4951279;29;20059;-65
2022/06/29 00:07:04;;;;;;;5.05;2.53;;;;;;;16.29;65.82;99576.97;4951811;29;20656;-65
2022/06/29 00:09:30;;;;;;;5.50;2.38;;;;;;;16.28;65.37;99567.25;4950052;29;20058;-65
2022/06/29 00:11:57;;;;;;;3.55;2.20;;;;;;;16.26;65.77;99568.34;4933793;29;20103;-64
2022/06/29 00:14:23;;;;;;;5.63;2.78;;;;;;;16.24;66.02;99564.94;4928857;29;20050;-64
2022/06/29 00:16:50;;;;;;;4.07;2.38;;;;;;;16.22;65.85;99569.53;4949027;29;20059;-65
2022/06/29 00:19:17;;;;;;;3.72;2.38;;;;;;;16.21;65.77;99565.19;4948732;28;20058;-66
2022/06/29 00:21:44;;;;;;;8.48;3.13;;;;;;;16.20;65.63;99567.00;4948965;29;20051;-65
2022/06/29 00:24:11;;;;;;;5.97;2.50;;;;;;;16.19;65.37;99559.97;4942499;29;20082;-65
2022/06/29 00:26:38;;;;;;;4.50;2.22;;;;;;;16.19;65.59;99567.97;4946955;29;20053;-65
2022/06/29 00:29:04;;;;;;;3.90;2.05;;;;;;;16.15;65.49;99560.34;4950150;29;20047;-65
2022/06/29 00:31:31;;;;;;;3.30;2.30;;;;;;;16.10;65.98;99558.88;4950923;29;20673;-65
2022/06/29 00:33:57;;;;;;;5.60;2.63;;;;;;;16.10;65.81;99558.03;4950518;29;20047;-65
2022/06/29 00:36:24;;;;;;;3.10;2.17;;;;;;;16.07;66.39;99564.44;4948620;29;20110;-65
2022/06/29 00:38:52;;;;;;;6.65;2.67;;;;;;;16.02;66.37;99561.28;4944345;29;20047;-65
2022/06/29 00:41:19;;;;;;;4.88;3.05;;;;;;;16.02;66.01;99568.38;4945723;29;20078;-65
2022/06/29 00:43:45;;;;;;;4.63;2.58;;;;;;;16.02;65.94;99553.31;4944163;29;20059;-65
2022/06/29 00:46:12;;;;;;;3.42;2.40;;;;;;;16.03;65.93;99557.66;4946561;29;20051;-65
2022/06/29 00:48:38;;;;;;;3.63;2.15;;;;;;;16.06;65.40;99557.41;4944901;29;20062;-65
2022/06/29 00:51:05;;;;;;;4.30;2.55;;;;;;;16.08;65.47;99551.97;4944169;29;20136;-64
2022/06/29 00:53:35;;;;;;;2.80;2.17;;;;;;;16.07;65.46;99552.94;4938249;29;20229;-65
2022/06/29 00:56:08;;;;;;;4.75;2.60;;;;;;;16.09;65.49;99546.53;4938140;29;20075;-65
2022/06/29 00:58:35;;;;;;;3.33;2.05;;;;;;;16.10;64.87;99537.59;4950113;28;20058;-66
2022/06/29 01:01:04;;;;;;;4.50;2.85;;;;;;;16.12;65.43;99545.47;4944584;29;20158;-66
2022/06/29 01:03:32;;;;;;;8.70;2.60;;;;;;;16.12;65.16;99533.97;4952199;29;20055;-66
2022/06/29 01:05:59;;;;;;;5.60;2.67;;;;;;;16.10;65.50;99536.75;4951836;29;20059;-65
2022/06/29 01:08:25;;;;;;;2.90;2.00;;;;;;;16.09;65.24;99533.22;4951999;29;20051;-66
2022/06/29 01:10:52;;;;;;;2.75;1.80;;;;;;;16.09;65.31;99537.72;4948685;29;20058;-64
2022/06/29 01:13:20;;;;;;;2.15;1.70;;;;;;;16.08;64.93;99536.88;4936524;29;20062;-66
2022/06/29 01:15:47;;;;;;;2.45;1.95;;;;;;;16.10;64.77;99534.94;4949862;29;20809;-66
2022/06/29 01:18:13;;;;;;;4.90;2.30;;;;;;;16.16;63.47;99538.09;4951238;29;20078;-66
2022/06/29 01:20:40;;;;;;;4.78;2.63;;;;;;;16.18;64.04;99530.84;4949439;29;20055;-67
2022/06/29 01:23:08;;;;;;;3.00;2.25;;;;;;;16.22;64.33;99537.63;4949602;29;20135;-66
2022/06/29 01:25:34;;;;;;;3.17;2.10;;;;;;;16.17;64.54;99531.81;4940342;29;20051;-66
2022/06/29 01:28:01;;;;;;;6.88;2.83;;;;;;;16.09;64.94;99530.56;4950329;29;20058;-66
2022/06/29 01:30:28;;;;;;;4.15;2.03;;;;;;;16.03;64.73;99536.38;4947966;29;20061;-66
2022/06/29 01:32:54;;;;;;;3.40;2.28;;;;;;;15.99;64.64;99539.38;4947924;29;20051;-66
2022/06/29 01:35:22;;;;;;;5.03;2.35;;;;;;;15.96;63.92;99534.28;4949294;29;20078;-66
2022/06/29 01:37:49;;;;;;;5.47;2.30;;;;;;;15.89;64.80;99528.59;4950459;29;20054;-66
2022/06/29 01:40:18;;;;;;;5.75;2.63;;;;;;;15.86;64.79;99527.00;4946043;29;20163;-66
2022/06/29 01:42:44;;;;;;;3.40;1.98;;;;;;;15.86;64.96;99520.84;4947733;29;20530;-66
2022/06/29 01:45:11;;;;;;;5.22;2.20;;;;;;;15.84;65.07;99520.97;4947139;29;20059;-66
2022/06/29 01:47:37;;;;;;;3.10;2.13;;;;;;;15.85;64.79;99522.66;4946020;29;20047;-66
2022/06/29 01:50:05;;;;;;;4.28;2.55;;;;;;;15.77;65.23;99518.88;4914018;29;20052;-66
2022/06/29 01:52:31;;;;;;;5.95;2.97;;;;;;;15.75;65.53;99520.78;4939864;29;20050;-66
2022/06/29 01:54:58;;;;;;;6.90;2.45;;;;;;;15.72;65.82;99515.72;4946874;29;20058;-66
2022/06/29 01:57:26;;;;;;;3.83;2.30;;;;;;;15.62;66.25;99508.41;4946746;29;20055;-66
2022/06/29 01:59:52;;;;;;;2.58;1.77;;;;;;;15.55;66.17;99512.47;4945851;29;20055;-66
2022/06/29 02:02:19;;;;;;;3.30;2.50;;;;;;;15.50;66.38;99509.31;4946459;29;20547;-66
2022/06/29 02:04:45;;;;;;;4.65;2.10;;;;;;;15.43;67.47;99511.59;4946248;29;20054;-66
2022/06/29 02:07:12;;;;;;;3.83;2.05;;;;;;;15.36;67.62;99504.19;4946683;29;20530;-66
2022/06/29 02:09:38;;;;;;;5.85;2.92;;;;;;;15.31;68.05;99516.94;4945607;28;20047;-66
2022/06/29 02:12:05;;;;;;;3.90;2.17;;;;;;;15.27;68.19;99505.69;4934322;29;20055;-65
2022/06/29 02:14:33;;;;;;;3.88;2.22;;;;;;;15.23;68.34;99505.09;4943210;29;20051;-65
2022/06/29 02:17:00;;;;;;;6.35;2.20;;;;;;;15.23;67.98;99504.22;4915285;29;20065;-65
2022/06/29 02:19:26;;;;;;;4.22;2.10;;;;;;;15.21;67.97;99504.34;4946210;29;20086;-65
2022/06/29 02:21:53;;;;;;;5.38;2.28;;;;;;;15.18;68.20;99496.59;4946070;29;20679;-65
2022/06/29 02:24:20;;;;;;;9.93;2.35;;;;;;;15.15;68.35;99496.81;4937967;29;20060;-65
2022/06/29 02:26:46;;;;;;;3.85;2.55;;;;;;;15.13;68.32;99488.09;4944885;29;20059;-65
2022/06/29 02:29:13;;;;;;;7.25;2.42;;;;;;;15.12;68.42;99494.38;4946210;29;20054;-65
2022/06/29 02:37:09;;;;;;;6.07;2.45;;;;;;;15.05;67.97;99482.50;4934956;29;20054;-66
2022/06/29 02:39:35;;;;;;;3.33;1.98;;;;;;;15.06;67.61;99486.84;4945606;29;20047;-65
2022/06/29 02:42:02;;;;;;;3.08;2.10;;;;;;;15.07;67.75;99488.56;4945886;29;20054;-65
2022/06/29 02:44:29;;;;;;;2.88;1.60;;;;;;;15.09;67.62;99480.47;4946347;29;20066;-65
2022/06/29 02:46:57;;;;;;;2.75;1.90;;;;;;;15.11;66.79;99481.22;4946242;29;20047;-65
2022/06/29 02:49:23;;;;;;;4.25;2.22;;;;;;;15.13;67.22;99481.94;4945021;29;20074;-66
2022/06/29 02:51:50;;;;;;;6.38;2.17;;;;;;;15.12;67.01;99481.13;4946235;29;20043;-65
2022/06/29 02:54:17;;;;;;;4.20;2.28;;;;;;;15.11;67.08;99483.88;4946166;29;20058;-66
2022/06/29 02:56:43;;;;;;;3.95;2.25;;;;;;;15.08;66.79;99470.81;4929095;29;20543;-65
2022/06/29 02:59:10;;;;;;;5.28;2.58;;;;;;;15.04;66.67;99470.22;4946460;29;20551;-65
2022/06/29 03:01:37;;;;;;;7.65;3.33;;;;;;;14.99;67.06;99470.53;4946726;29;20043;-65
2022/06/29 03:04:05;;;;;;;2.45;2.00;;;;;;;14.98;66.92;99468.81;4945610;29;20055;-65
2022/06/29 03:06:32;;;;;;;5.93;2.10;;;;;;;14.96;67.06;99475.22;4946127;29;20109;-65
2022/06/29 03:08:58;;;;;;;5.80;2.70;;;;;;;14.96;67.27;99469.91;4944877;29;20057;-64
2022/06/29 03:11:25;;;;;;;4.00;2.85;;;;;;;14.94;67.33;99470.03;4938493;29;20062;-65
2022/06/29 03:13:51;;;;;;;4.75;2.13;;;;;;;14.92;67.95;99468.44;4936487;29;20047;-65
2022/06/29 03:16:18;;;;;;;4.32;2.20;;;;;;;14.87;67.92;99474.09;4945496;29;20050;-65
2022/06/29 03:18:44;;;;;;;6.18;2.00;;;;;;;14.81;68.00;99472.69;4944984;29;20047;-65
2022/06/29 03:21:12;;;;;;;5.65;2.42;;;;;;;14.76;68.15;99474.00;4944089;29;20628;-67
2022/06/29 03:23:39;;;;;;;3.53;2.17;;;;;;;14.74;67.90;99468.81;4942814;29;20065;-66
2022/06/29 03:26:06;;;;;;;5.60;2.25;;;;;;;14.71;68.05;99469.00;4938338;29;20463;-66
2022/06/29 03:28:32;;;;;;;3.83;2.95;;;;;;;14.69;67.81;99462.13;4945492;29;20054;-64
2022/06/29 03:30:59;;;;;;;2.92;2.08;;;;;;;14.66;68.39;99460.53;4942773;29;20047;-65
2022/06/29 03:33:25;;;;;;;4.72;2.47;;;;;;;14.59;68.72;99457.50;4941077;29;20083;-65
2022/06/29 03:35:52;;;;;;;3.60;2.05;;;;;;;14.57;69.18;99454.09;4944905;29;20062;-65
2022/06/29 03:38:20;;;;;;;3.78;2.03;;;;;;;14.55;68.66;99455.16;4945319;29;20066;-64
2022/06/29 03:40:47;;;;;;;5.55;2.30;;;;;;;14.53;68.92;99457.03;4944143;29;20142;-64
2022/06/29 03:43:13;;;;;;;9.80;2.47;;;;;;;14.49;69.05;99456.38;4944649;29;20051;-66
2022/06/29 03:45:40;;;;;;;3.50;2.33;;;;;;;14.47;68.65;99454.81;4945128;29;20550;-66
2022/06/29 03:48:07;;;;;;;4.97;2.78;;;;;;;14.45;69.03;99444.31;4944953;29;20047;-65
2022/06/29 03:50:34;;;;;;;3.08;2.10;;;;;;;14.43;69.29;99450.69;4944185;29;20043;-65
2022/06/29 03:53:01;;;;;;;5.75;2.40;;;;;;;14.37;69.45;99457.25;4914036;29;20065;-65
2022/06/29 03:55:29;;;;;;;6.05;2.33;;;;;;;14.37;68.94;99452.81;4921090;29;20055;-65
2022/06/29 03:57:55;;;;;;;4.03;2.08;;;;;;;14.38;69.55;99473.06;4944875;29;20054;-65
2022/06/29 04:00:22;;;;;;;4.40;2.13;;;;;;;14.38;69.44;99461.63;4944392;29;20055;-66
2022/06/29 04:02:49;;;;;;;2.97;2.03;;;;;;;14.37;69.59;99455.47;4944862;29;20042;-65
2022/06/29 04:05:16;;;;;;;5.45;2.20;;;;;;;14.40;68.95;99457.06;4944805;29;20066;-65
2022/06/29 04:07:42;;;;;;;5.63;2.03;;;;;;;14.49;68.08;99455.56;4945504;29;20055;-65
2022/06/29 04:10:09;;;;;;;3.53;2.22;;;;;;;14.55;68.44;99447.19;4945283;29;20439;-65
2022/06/29 04:12:38;;;;;;;3.78;2.10;;;;;;;14.56;68.97;99454.19;4929590;29;20058;-65
2022/06/29 04:15:06;;;;;;;3.58;2.40;;;;;;;14.56;68.96;99447.06;4945399;29;20051;-65
2022/06/29 04:17:33;;;;;;;2.47;1.90;;;;;;;14.55;69.51;99450.69;4944919;29;20051;-66
2022/06/29 04:20:00;;;;;;;4.32;2.53;;;;;;;14.52;69.00;99450.91;4944302;29;20043;-66
2022/06/29 04:22:27;;;;;;;5.18;2.05;;;;;;;14.54;69.21;99454.28;4944760;29;20464;-67
2022/06/29 04:24:53;;;;;;;5.85;2.45;;;;;;;14.56;68.94;99449.72;4934322;29;20059;-66
2022/06/29 04:27:20;;;;;;;6.07;2.45;;;;;;;14.66;68.24;99457.03;4942373;29;20091;-66
2022/06/29 04:29:48;;;;;;;2.85;2.10;;;;;;;14.71;67.96;99450.44;4943723;29;20055;-66
2022/06/29 04:32:14;;;;;;;5.38;2.47;;;;;;;14.71;68.84;99444.28;4946228;28;20607;-67
2022/06/29 04:34:41;;;;;;;4.70;2.28;;;;;;;14.73;68.91;99447.69;4948195;29;20285;-67
2022/06/29 04:37:08;;;;;;;6.00;2.30;;;;;;;14.78;68.34;99451.69;4949670;29;20081;-67
2022/06/29 04:39:35;;;;;;;8.20;2.20;;;;;;;14.90;67.80;99454.44;4948134;29;20051;-67
2022/06/29 04:42:02;;;;;;;3.85;2.10;;;;;;;14.95;68.70;99446.97;4949187;29;20059;-65
2022/06/29 04:44:28;;;;;;;2.70;2.25;;;;;;;15.02;68.62;99443.75;4950281;29;20134;-65
2022/06/29 04:46:56;;;;;;;3.22;2.50;;;;;;;15.09;68.24;99433.56;4948649;29;20491;-65
2022/06/29 04:49:23;;;;;;;4.68;2.20;;;;;;;15.20;68.00;99435.41;4936146;29;20067;-65
2022/06/29 04:51:50;;;;;;;6.38;2.42;;;;;;;15.33;67.58;99430.03;4948526;29;20055;-65
2022/06/29 04:54:17;;;;;;;2.75;2.05;;;;;;;15.48;66.44;99436.00;4948434;29;20078;-65
2022/06/29 04:56:44;;;;;;;3.80;2.20;;;;;;;15.65;65.66;99430.25;4948400;29;20057;-65
2022/06/29 04:59:10;;;;;;;2.72;1.92;;;;;;;15.81;65.15;99433.47;4947699;29;20149;-65
2022/06/29 05:01:37;;;;;;;3.00;2.10;;;;;;;16.00;64.59;99435.56;4948324;29;20150;-65
2022/06/29 05:04:05;;;;;;;2.42;1.95;;;;;;;16.18;64.35;99432.44;4947956;29;20074;-66
2022/06/29 05:06:32;;;;;;;3.15;2.15;;;;;;;16.37;63.70;99426.53;4947820;29;20138;-66
2022/06/29 05:08:59;;;;;;;3.03;2.20;;;;;;;16.56;63.34;99431.22;4947525;29;20110;-65
2022/06/29 05:11:26;;;;;;;3.22;2.08;;;;;;;16.69;62.72;99429.28;4940689;29;20089;-65
2022/06/29 05:13:53;;;;;;;4.55;2.83;;;;;;;16.81;62.33;99431.00;4938752;29;20078;-66
2022/06/29 05:16:20;;;;;;;7.88;2.85;;;;;;;16.91;62.74;99431.94;4947077;29;20059;-65
2022/06/29 05:18:47;;;;;;;3.53;2.67;;;;;;;16.97;63.14;99432.41;4946810;29;20138;-65
2022/06/29 05:21:15;;;;;;;4.53;2.03;;;;;;;17.02;62.48;99427.56;4946426;29;20061;-66
2022/06/29 05:23:42;;;;;;;5.63;2.10;;;;;;;17.04;60.89;99425.63;4945731;29;20550;-66
2022/06/29 05:26:08;;;;;;;3.13;1.85;;;;;;;17.09;61.75;99431.41;4947928;29;20082;-65
2022/06/29 05:28:35;;;;;;;5.47;2.10;;;;;;;17.12;61.22;99428.47;4947602;29;20051;-64
2022/06/29 05:31:02;;;;;;;4.80;1.98;;;;;;;17.19;60.87;99428.84;4946740;29;20397;-66
2022/06/29 05:33:36;;;;;;;5.63;2.65;;;;;;;17.30;59.76;99434.09;4947678;29;20795;-66
2022/06/29 05:36:03;;;;;;;6.40;2.05;;;;;;;17.39;59.99;99428.84;4947209;29;20518;-65
2022/06/29 05:38:32;;;;;;;5.05;2.35;;;;;;;17.46;59.13;99423.88;4947603;29;20147;-66
2022/06/29 05:41:00;;;;;;;3.40;2.15;;;;;;;17.51;58.11;99434.16;4946493;29;20058;-65
2022/06/29 05:43:27;;;;;;;2.15;1.70;;;;;;;17.58;58.54;99427.34;4946913;28;20059;-66
2022/06/29 05:45:53;;;;;;;3.95;1.98;;;;;;;17.65;58.61;99435.66;4933178;29;20537;-64
2022/06/29 05:48:20;;;;;;;4.47;1.95;;;;;;;17.76;57.53;99436.44;4942123;29;20051;-64
2022/06/29 05:50:47;;;;;;;3.60;1.83;;;;;;;17.86;57.28;99433.03;4946867;29;20047;-66
2022/06/29 05:53:14;;;;;;;5.50;2.42;;;;;;;17.92;56.36;99429.84;4947142;29;20122;-65
2022/06/29 05:55:42;;;;;;;2.83;1.88;;;;;;;17.97;57.00;99438.28;4948052;29;20063;-64
2022/06/29 05:58:08;;;;;;;4.60;2.67;;;;;;;18.02;56.87;99426.25;4947867;29;20047;-64
2022/06/29 06:00:35;;;;;;;6.72;1.88;;;;;;;18.12;56.92;99428.13;4946413;29;20050;-64
2022/06/29 06:03:02;;;;;;;5.63;2.63;;;;;;;18.20;57.18;99421.13;4933549;29;20742;-64
2022/06/29 06:05:29;;;;;;;5.45;2.42;;;;;;;18.31;57.28;99424.69;4928687;29;20051;-65
2022/06/29 06:07:55;;;;;;;2.60;1.85;;;;;;;18.40;56.89;99426.56;4947497;29;20134;-66
2022/06/29 06:10:22;;;;;;;2.80;2.08;;;;;;;18.48;56.62;99423.22;4946741;29;20082;-64
2022/06/29 06:12:50;;;;;;;4.72;2.85;;;;;;;18.58;56.96;99413.41;4931227;29;20475;-65
2022/06/29 06:15:17;;;;;;;5.40;2.88;;;;;;;18.70;56.93;99422.16;4946879;29;20055;-65
2022/06/29 06:17:43;;;;;;;10.43;3.08;;;;;;;18.81;56.37;99422.94;4946731;29;20054;-65
2022/06/29 06:20:11;;;;;;;4.22;2.75;;;;;;;18.89;56.96;99419.56;4941149;29;20060;-65
2022/06/29 06:22:38;;;;;;;4.65;2.80;;;;;;;18.97;57.03;99422.38;4944458;29;20079;-64
2022/06/29 06:25:05;;;;;;;5.57;2.67;;;;;;;19.06;56.90;99415.38;4936337;29;20055;-66
2022/06/29 06:27:32;;;;;;;4.88;2.05;;;;;;;19.13;57.59;99413.00;4946573;29;20069;-66
2022/06/29 06:30:00;;;;;;;3.63;1.92;;;;;;;19.21;57.55;99415.81;4945527;29;20057;-66
2022/06/29 06:32:26;;;;;;;5.45;1.58;;;;;;;19.29;56.44;99414.13;4946048;29;20062;-65
2022/06/29 06:34:53;;;;;;;5.75;2.38;;;;;;;19.31;56.83;99414.00;4945715;29;20054;-49
2022/06/29 06:37:20;;;;;;;5.57;2.10;;;;;;;19.43;56.44;99410.19;4945911;29;20081;-54
2022/06/29 06:42:27;;;;;;;2.90;2.00;;;;;;;19.89;55.15;99415.81;4921393;29;20055;-52
2022/06/29 06:44:53;;;;;;;3.00;2.28;;;;;;;19.92;55.12;99418.19;4923348;29;20052;-53
2022/06/29 06:47:21;;;;;;;4.63;2.78;;;;;;;19.97;55.42;99417.75;4920730;29;20059;-47
2022/06/29 06:49:48;;;;;;;4.18;2.20;;;;;;;19.99;55.38;99418.47;4921235;29;20062;-53
2022/06/29 06:52:17;;;;;;;3.70;1.90;;;;;;;20.12;54.52;99422.47;4916541;29;20056;-52
2022/06/29 06:54:44;;;;;;;2.33;1.73;;;;;;;20.29;55.17;99428.91;4941666;28;20058;-50
2022/06/29 06:57:11;;;;;;;5.07;2.47;;;;;;;20.42;54.75;99425.06;4945668;29;20146;-52
2022/06/29 06:59:38;;;;;;;8.32;3.17;;;;;;;20.42;55.17;99417.03;4945785;29;20694;-55
2022/06/29 07:02:05;;;;;;;5.25;2.60;;;;;;;20.38;55.06;99409.31;4945768;29;20396;-50
2022/06/29 07:04:33;;;;;;;2.92;2.28;;;;;;;20.42;55.11;99414.34;4945544;29;20061;-55
2022/06/29 07:06:59;;;;;;;4.32;2.25;;;;;;;20.40;55.03;99414.47;4945947;29;20396;-65
2022/06/29 07:09:26;;;;;;;5.47;2.40;;;;;;;20.30;55.89;99411.84;4944518;29;20768;-70
2022/06/29 07:11:52;;;;;;;5.60;2.28;;;;;;;20.24;56.48;99416.97;4934685;29;20061;-65
2022/06/29 07:14:19;;;;;;;5.45;1.90;;;;;;;20.21;57.26;99418.09;4939611;29;20148;-64
2022/06/29 07:16:45;;;;;;;4.50;2.10;;;;;;;20.21;57.62;99410.06;4939509;29;20056;-65
2022/06/29 07:19:12;;;;;;;4.28;2.55;;;;;;;20.24;57.99;99412.44;4944447;29;20055;-66
2022/06/29 07:21:40;;;;;;;13.05;2.50;;;;;;;20.24;58.33;99415.13;4945093;29;20055;-65
2022/06/29 07:24:07;;;;;;;5.55;2.05;;;;;;;20.27;58.65;99404.13;4939201;29;20052;-65
2022/06/29 07:26:33;;;;;;;5.80;2.55;;;;;;;20.33;58.10;99403.53;4941831;29;20051;-49
2022/06/29 07:29:00;;;;;;;3.47;2.05;;;;;;;20.46;56.98;99403.19;4912803;29;20471;-46
2022/06/29 07:31:27;;;;;;;4.78;1.80;;;;;;;20.54;56.72;99410.50;4945100;29;20051;-44
2022/06/29 07:33:53;;;;;;;6.00;2.38;;;;;;;20.63;56.96;99412.31;4945269;29;20055;-44
2022/06/29 07:36:20;;;;;;;3.00;1.92;;;;;;;20.72;56.78;99410.56;4945058;29;20507;-49
2022/06/29 07:38:48;;;;;;;9.05;3.10;;;;;;;20.77;56.42;99406.47;4914873;29;20423;-45
2022/06/29 07:41:14;;;;;;;8.20;2.65;;;;;;;20.85;56.02;99420.94;4944770;29;20051;-49
2022/06/29 07:43:41;;;;;;;3.92;1.85;;;;;;;20.91;56.96;99412.28;4945241;29;20054;-48
2022/06/29 07:46:08;;;;;;;4.43;2.45;;;;;;;20.97;57.80;99414.38;4945607;29;20058;-44
2022/06/29 07:48:35;;;;;;;4.50;2.92;;;;;;;21.02;57.42;99415.59;4945737;29;20059;-47
2022/06/29 07:51:02;;;;;;;2.83;2.03;;;;;;;21.08;57.23;99415.97;4944505;29;20077;-45
2022/06/29 07:53:29;;;;;;;3.72;2.10;;;;;;;21.10;56.59;99414.00;4944643;29;20065;-66
2022/06/29 07:55:57;;;;;;;7.07;2.05;;;;;;;21.12;56.77;99412.00;4932225;29;20121;-66
2022/06/29 07:58:24;;;;;;;4.85;2.10;;;;;;;21.12;56.40;99407.50;4942171;29;20791;-66
2022/06/29 08:00:52;;;;;;;2.53;1.80;;;;;;;21.19;56.14;99408.56;4943923;29;20058;-64
2022/06/29 08:03:18;;;;;;;2.22;1.65;;;;;;;21.26;56.49;99410.63;4944634;29;20047;-65
2022/06/29 08:05:47;;;;;;;9.73;2.67;;;;;;;21.31;56.05;99413.69;4944946;29;20098;-65
2022/06/29 08:08:14;;;;;;;4.22;2.10;;;;;;;21.36;55.33;99412.25;4943887;28;20118;-64
2022/06/29 08:10:40;;;;;;;2.90;1.58;;;;;;;21.48;54.79;99412.03;4942907;29;20061;-67
2022/06/29 08:13:09;;;;;;;1.95;1.40;;;;;;;21.59;54.65;99412.63;4934661;29;20047;-65
2022/06/29 08:15:35;;;;;;;2.70;1.88;;;;;;;21.74;54.88;99407.53;4948185;29;20051;-64
2022/06/29 08:18:02;;;;;;;2.72;1.48;;;;;;;21.82;54.08;99409.44;4948573;29;20051;-64
2022/06/29 08:20:30;;;;;;;3.08;1.95;;;;;;;21.89;53.95;99404.28;4948235;29;20081;-64
2022/06/29 08:22:57;;;;;;;3.13;1.80;;;;;;;21.92;53.25;99406.66;4948207;29;20058;-63
2022/06/29 08:25:23;;;;;;;3.22;2.13;;;;;;;21.96;53.51;99403.50;4918060;29;20054;-64
2022/06/29 08:27:52;;;;;;;4.47;1.92;;;;;;;22.01;53.58;99403.03;4939236;29;20055;-65
2022/06/29 08:30:20;;;;;;;3.25;2.40;;;;;;;22.10;53.25;99404.75;4947922;29;20114;-66
2022/06/29 08:32:47;;;;;;;3.83;2.88;;;;;;;22.15;54.11;99397.09;4946622;29;20559;-64
2022/06/29 08:35:15;;;;;;;4.53;2.33;;;;;;;22.24;53.72;99404.19;4948304;29;20102;-65
2022/06/29 08:37:42;;;;;;;4.78;2.30;;;;;;;22.31;52.66;99406.25;4948000;29;20075;-65
2022/06/29 08:40:11;;;;;;;2.03;1.83;;;;;;;22.37;52.41;99398.38;4947605;29;20574;-64
2022/06/29 08:42:39;;;;;;;6.75;1.90;;;;;;;22.39;52.38;99399.06;4948048;29;20049;-66
2022/06/29 08:45:07;;;;;;;7.47;2.25;;;;;;;22.40;51.61;99397.25;4943190;29;20574;-66
2022/06/29 08:47:36;;;;;;;3.60;2.03;;;;;;;22.45;51.94;99400.28;4948068;29;20114;-66
2022/06/29 08:50:04;;;;;;;3.20;1.95;;;;;;;22.49;52.96;99399.75;4947324;29;20569;-66
2022/06/29 08:52:30;;;;;;;5.38;2.08;;;;;;;22.55;53.15;99405.53;4947409;29;20518;-65
2022/06/29 08:54:58;;;;;;;5.50;1.90;;;;;;;22.63;50.56;99400.16;4947465;29;20055;-66
2022/06/29 08:57:24;;;;;;;4.85;1.75;;;;;;;22.72;50.04;99404.56;4916505;29;20058;-65
2022/06/29 08:59:53;;;;;;;5.93;2.22;;;;;;;22.82;50.12;99416.03;4929926;29;20535;-65
2022/06/29 09:02:20;;;;;;;4.85;1.90;;;;;;;22.92;51.06;99400.59;4942052;29;20062;-65
2022/06/29 09:04:48;;;;;;;4.55;2.35;;;;;;;23.07;49.66;99402.69;4935448;29;20086;-65
2022/06/29 09:07:15;;;;;;;8.27;1.95;;;;;;;23.24;48.15;99399.00;4939512;29;20055;-65
2022/06/29 09:10:01;;;;;;;6.40;2.00;;;;;;;23.66;46.42;99399.84;4939963;29;20059;-67
2022/06/29 09:12:29;;;;;;;4.88;1.63;;;;;;;23.88;44.77;99401.03;4927338;29;20075;-64
2022/06/29 09:14:56;;;;;;;7.20;1.83;;;;;;;24.06;42.73;99403.53;4913297;29;20057;-66
2022/06/29 09:17:24;;;;;;;3.75;2.20;;;;;;;24.62;42.39;99396.28;4913503;29;20052;-66
2022/06/29 09:19:54;;;;;;;3.78;2.28;;;;;;;24.98;40.46;99403.84;4934883;29;20055;-65
2022/06/29 09:22:21;;;;;;;14.57;2.80;;;;;;;25.06;39.08;99396.56;4926921;29;20064;-65
2022/06/29 09:24:49;;;;;;;10.73;2.67;;;;;;;25.15;37.81;99394.63;4935336;29;20093;-65
2022/06/29 09:27:16;;;;;;;10.75;2.65;;;;;;;25.27;39.27;99398.59;4946938;29;20055;-65
2022/06/29 09:29:44;;;;;;;7.68;3.53;;;;;;;25.45;36.79;99402.91;4945985;29;20051;-67
2022/06/29 09:32:16;;;;;;;5.63;1.40;;;;;;;25.55;36.21;99399.91;4935636;28;20439;-68
2022/06/29 09:34:45;;;;;;;5.15;1.70;;;;;;;25.39;36.05;99401.72;4948883;29;20039;-65
2022/06/29 09:37:15;;;;;;;3.00;2.05;;;;;;;25.42;38.57;99401.38;4948455;29;20142;-65
2022/06/29 09:39:44;;;;;;;4.47;1.90;;;;;;;25.54;35.78;99403.66;4947860;29;20404;-65
2022/06/29 09:42:13;;;;;;;4.50;1.80;;;;;;;25.59;34.82;99401.25;4948574;29;20061;-66
2022/06/29 09:44:40;;;;;;;2.33;1.85;;;;;;;25.71;35.97;99397.09;4937730;29;20188;-66
2022/06/29 09:47:11;;;;;;;4.15;1.98;;;;;;;26.38;34.06;99404.34;4926924;29;20499;-67
2022/06/29 09:49:39;;;;;;;3.13;1.70;;;;;;;26.49;32.46;99398.47;4927033;29;20047;-67
2022/06/29 09:52:07;;;;;;;3.15;1.50;;;;;;;26.65;32.49;99396.63;4948593;29;20058;-66
2022/06/29 09:54:39;;;;;;;2.50;1.50;;;;;;;26.71;31.65;99391.28;4948530;29;20065;-66
2022/06/29 09:57:07;;;;;;;2.83;1.52;;;;;;;26.81;33.08;99384.75;4918735;29;20739;-60
2022/06/29 10:02:37;;;;;;;4.10;1.70;;;;;;;26.72;31.65;99401.06;4947936;29;20062;-67
2022/06/29 10:05:06;;;;;;;4.20;2.53;;;;;;;26.91;32.35;99401.50;4917102;29;20139;-65
2022/06/29 10:07:34;;;;;;;4.72;1.90;;;;;;;27.21;32.90;99396.88;4934708;29;20060;-65
2022/06/29 10:10:05;;;;;;;5.05;1.60;;;;;;;27.37;31.93;99387.66;4946898;29;20054;-66
2022/06/29 10:16:02;;;;;;;3.97;2.08;;;;;;;27.81;29.82;99391.97;4926661;29;20704;-65
2022/06/29 10:18:51;;;;;;;1.60;1.45;;;;;;;28.02;29.96;99391.13;4940401;29;20094;-66
2022/06/29 10:21:19;;;;;;;6.43;2.22;;;;;;;28.19;29.00;99388.94;4912671;29;20060;-65
2022/06/29 10:23:48;;;;;;;3.75;2.03;;;;;;;28.98;28.25;99384.91;4924290;29;20056;-65
2022/06/29 10:26:45;;;;;;;3.95;1.83;;;;;;;29.79;27.64;99389.44;4941869;29;20418;-66
2022/06/29 10:29:34;;;;;;;2.80;1.58;;;;;;;31.19;24.95;99381.69;4911693;29;20151;-65
2022/06/29 10:32:17;;;;;;;3.78;1.85;;;;;;;31.78;24.22;99374.94;4946693;29;20130;-66
2022/06/29 10:37:31;;;;;;;2.20;1.63;;;;;;;32.32;24.02;99360.75;4946050;29;20403;-67
2022/06/29 10:40:00;;;;;;;5.18;1.70;;;;;;;32.48;23.10;99363.72;4937978;29;20422;-67
2022/06/29 10:45:32;;;;;;;5.90;1.70;;;;;;;33.05;23.01;99365.34;4929107;29;20062;-66
2022/06/29 10:48:13;;;;;;;3.17;1.80;;;;;;;33.58;22.41;99359.06;4926195;29;20059;-66
2022/06/29 10:50:41;;;;;;;5.22;2.40;;;;;;;32.94;23.21;99356.00;4935471;29;20056;-66
2022/06/29 10:53:08;;;;;;;4.28;1.98;;;;;;;32.86;23.84;99348.97;4924451;29;20086;-67
2022/06/29 10:55:37;;;;;;;2.38;1.55;;;;;;;32.67;23.95;99344.63;4932422;29;20143;-66
2022/06/29 10:58:06;;;;;;;5.13;2.15;;;;;;;32.69;23.89;99346.06;4932289;29;20058;-66
2022/06/29 11:00:34;;;;;;;4.57;2.47;;;;;;;32.00;24.66;99348.13;4924416;29;20065;-67
2022/06/29 11:03:08;;;;;;;6.43;1.92;;;;;;;30.80;26.04;99343.53;4937914;29;20047;-67
2022/06/29 11:05:36;;;;;;;4.50;2.20;;;;;;;30.32;26.54;99343.13;4919430;29;20056;-66
2022/06/29 11:13:33;;;;;;;1.88;1.35;;;;;;;29.45;27.89;99332.38;4933937;29;20070;-68
2022/06/29 11:16:01;;;;;;;5.00;2.90;;;;;;;29.39;28.02;99327.78;4945004;29;20126;-67
2022/06/29 11:18:30;;;;;;;4.28;2.03;;;;;;;29.48;28.25;99322.97;4945032;29;20051;-66
2022/06/29 11:21:02;;;;;;;2.30;1.98;;;;;;;29.10;28.35;99338.00;4943985;29;20054;-67
2022/06/29 11:23:30;;;;;;;3.17;1.80;;;;;;;28.60;28.84;99323.00;4943630;29;20138;-68
2022/06/29 11:25:57;;;;;;;2.15;1.42;;;;;;;28.69;32.22;99319.91;4937041;29;20047;-47
2022/06/29 11:28:26;;;;;;;4.45;1.38;;;;;;;28.47;31.33;99316.50;4935747;29;20412;-51
2022/06/29 11:31:05;;;;;;;3.08;1.70;;;;;;;28.57;29.41;99318.84;4944117;29;20047;-67
2022/06/29 11:33:33;;;;;;;4.13;1.60;;;;;;;28.57;29.31;99313.41;4944786;29;20731;-67
2022/06/29 11:36:04;;;;;;;3.08;1.80;;;;;;;28.64;28.96;99316.97;4944960;29;20047;-66
2022/06/29 11:38:31;;;;;;;3.85;1.90;;;;;;;28.54;29.19;99315.72;4943995;29;20110;-66
2022/06/29 11:40:57;;;;;;;3.92;1.75;;;;;;;28.43;29.46;99317.94;4943813;28;20058;-66
2022/06/29 11:43:24;;;;;;;8.73;2.30;;;;;;;28.35;29.70;99307.25;4944946;29;20887;-66
2022/06/29 11:45:52;;;;;;;4.15;1.55;;;;;;;28.43;29.64;99311.69;4944794;29;20051;-65
2022/06/29 11:48:22;;;;;;;3.88;1.92;;;;;;;28.66;28.93;99308.66;4944480;29;20059;-65
2022/06/29 11:50:51;;;;;;;5.00;2.10;;;;;;;28.76;28.52;99300.94;4936337;29;20062;-66
2022/06/29 11:53:41;;;;;;;4.80;1.83;;;;;;;28.81;28.71;99303.03;4931112;29;20051;-65
2022/06/29 11:56:10;;;;;;;3.17;1.90;;;;;;;28.60;29.22;99293.16;4944597;29;20508;-65
2022/06/29 11:58:38;;;;;;;4.68;2.17;;;;;;;28.33;30.86;99300.34;4940738;29;20065;-64
2022/06/29 12:01:08;;;;;;;4.15;2.35;;;;;;;28.26;31.20;99298.47;4944068;29;20130;-65
2022/06/29 12:03:36;;;;;;;5.53;2.22;;;;;;;27.84;31.52;99288.69;4944515;29;20059;-65